sensor_id;sensor_type;location;lat;lon;timestamp;pressure;altitude;pressure_sealevel;temperature;humidity
7333;BME280;3707;43.618;25.342;2022-08-04T00:00:04;100145.00;;;25.06;63.04
7333;BME280;3707;43.618;25.342;2022-08-04T00:02:42;100156.34;;;25.10;61.63
7333;BME280;3707;43.618;25.342;2022-08-04T00:05:19;100160.97;;;25.05;61.65
7333;BME280;3707;43.618;25.342;2022-08-04T00:07:59;100164.38;;;25.08;60.51
7333;BME280;3707;43.618;25.342;2022-08-04T00:10:31;100167.47;;;24.98;61.55
7333;BME280;3707;43.618;25.342;2022-08-04T00:13:01;100173.75;;;24.97;63.57
7333;BME280;3707;43.618;25.342;2022-08-04T00:15:31;100180.56;;;24.81;69.00
7333;BME280;3707;43.618;25.342;2022-08-04T00:18:03;100159.63;;;24.53;76.98
7333;BME280;3707;43.618;25.342;2022-08-04T00:20:32;100175.84;;;24.67;76.12
7333;BME280;3707;43.618;25.342;2022-08-04T00:23:00;100173.19;;;24.67;76.51
7333;BME280;3707;43.618;25.342;2022-08-04T00:25:27;100175.84;;;24.67;77.33
7333;BME280;3707;43.618;25.342;2022-08-04T00:27:54;100178.97;;;24.55;76.46
7333;BME280;3707;43.618;25.342;2022-08-04T00:30:22;100158.75;;;24.52;74.30
7333;BME280;3707;43.618;25.342;2022-08-04T00:32:51;100160.97;;;24.63;73.06
7333;BME280;3707;43.618;25.342;2022-08-04T00:35:18;100181.00;;;24.70;71.28
7333;BME280;3707;43.618;25.342;2022-08-04T00:37:45;100179.81;;;24.77;73.97
7333;BME280;3707;43.618;25.342;2022-08-04T00:40:23;100160.94;;;24.86;71.67
7333;BME280;3707;43.618;25.342;2022-08-04T00:43:00;100182.44;;;25.00;69.01
7333;BME280;3707;43.618;25.342;2022-08-04T00:45:51;100195.94;;;24.94;69.06
7333;BME280;3707;43.618;25.342;2022-08-04T00:48:36;100193.50;;;24.90;69.43
7333;BME280;3707;43.618;25.342;2022-08-04T00:51:14;100197.34;;;24.81;72.85
7333;BME280;3707;43.618;25.342;2022-08-04T00:53:51;100172.72;;;24.57;71.79
7333;BME280;3707;43.618;25.342;2022-08-04T00:56:39;100191.66;;;24.68;73.30
7333;BME280;3707;43.618;25.342;2022-08-04T00:59:16;100160.84;;;24.44;72.16
7333;BME280;3707;43.618;25.342;2022-08-04T01:01:54;100200.31;;;24.52;71.89
7333;BME280;3707;43.618;25.342;2022-08-04T01:04:39;100172.94;;;24.30;72.87
7333;BME280;3707;43.618;25.342;2022-08-04T01:07:23;100192.00;;;24.39;73.02
7333;BME280;3707;43.618;25.342;2022-08-04T01:10:03;100203.94;;;24.28;73.36
7333;BME280;3707;43.618;25.342;2022-08-04T01:12:42;100193.56;;;23.98;78.29
7333;BME280;3707;43.618;25.342;2022-08-04T01:15:19;100207.88;;;23.69;92.30
7333;BME280;3707;43.618;25.342;2022-08-04T01:18:01;100213.94;;;23.23;98.58
7333;BME280;3707;43.618;25.342;2022-08-04T01:20:32;100217.69;;;22.90;100.00
7333;BME280;3707;43.618;25.342;2022-08-04T01:26:47;100202.09;;;22.55;100.00
7333;BME280;3707;43.618;25.342;2022-08-04T01:29:20;100227.16;;;22.71;100.00
7333;BME280;3707;43.618;25.342;2022-08-04T01:31:59;100221.44;;;22.85;100.00
7333;BME280;3707;43.618;25.342;2022-08-04T01:34:28;100208.16;;;22.86;100.00
7333;BME280;3707;43.618;25.342;2022-08-04T01:36:59;100217.56;;;22.95;100.00
7333;BME280;3707;43.618;25.342;2022-08-04T01:39:43;100221.56;;;23.06;94.86
7333;BME280;3707;43.618;25.342;2022-08-04T01:42:16;100211.78;;;23.08;96.13
7333;BME280;3707;43.618;25.342;2022-08-04T01:44:47;100201.94;;;23.13;93.01
7333;BME280;3707;43.618;25.342;2022-08-04T01:47:16;100198.88;;;23.26;93.33
7333;BME280;3707;43.618;25.342;2022-08-04T01:49:47;100209.66;;;23.46;92.52
7333;BME280;3707;43.618;25.342;2022-08-04T01:52:16;100210.03;;;23.34;93.04
7333;BME280;3707;43.618;25.342;2022-08-04T01:54:45;100177.09;;;23.17;92.99
7333;BME280;3707;43.618;25.342;2022-08-04T01:57:14;100201.19;;;23.35;91.44
7333;BME280;3707;43.618;25.342;2022-08-04T01:59:45;100200.44;;;23.31;90.38
7333;BME280;3707;43.618;25.342;2022-08-04T02:02:13;100182.81;;;23.05;88.86
7333;BME280;3707;43.618;25.342;2022-08-04T02:04:40;100189.63;;;23.12;88.83
7333;BME280;3707;43.618;25.342;2022-08-04T02:07:18;100204.16;;;23.26;88.38
7333;BME280;3707;43.618;25.342;2022-08-04T02:09:52;100204.63;;;23.37;85.62
7333;BME280;3707;43.618;25.342;2022-08-04T02:15:27;100190.22;;;23.20;83.45
7333;BME280;3707;43.618;25.342;2022-08-04T02:17:59;100202.53;;;23.21;85.93
7333;BME280;3707;43.618;25.342;2022-08-04T02:20:33;100178.66;;;22.98;86.24
7333;BME280;3707;43.618;25.342;2022-08-04T02:23:04;100196.00;;;23.32;84.93
7333;BME280;3707;43.618;25.342;2022-08-04T02:25:35;100179.84;;;23.39;81.37
7333;BME280;3707;43.618;25.342;2022-08-04T02:28:15;100211.28;;;23.50;81.39
7333;BME280;3707;43.618;25.342;2022-08-04T02:31:01;100212.03;;;23.53;81.30
7333;BME280;3707;43.618;25.342;2022-08-04T02:33:35;100205.75;;;23.56;83.71
7333;BME280;3707;43.618;25.342;2022-08-04T02:36:04;100208.91;;;23.65;82.45
7333;BME280;3707;43.618;25.342;2022-08-04T02:38:42;100212.13;;;23.75;81.89
7333;BME280;3707;43.618;25.342;2022-08-04T02:41:15;100217.59;;;23.69;82.48
7333;BME280;3707;43.618;25.342;2022-08-04T02:43:42;100179.16;;;23.59;82.23
7333;BME280;3707;43.618;25.342;2022-08-04T02:46:15;100206.22;;;23.67;81.64
7333;BME280;3707;43.618;25.342;2022-08-04T02:48:45;100204.16;;;23.75;78.02
7333;BME280;3707;43.618;25.342;2022-08-04T02:51:14;100210.53;;;23.69;78.65
7333;BME280;3707;43.618;25.342;2022-08-04T02:53:42;100181.31;;;23.48;79.42
7333;BME280;3707;43.618;25.342;2022-08-04T02:56:10;100207.69;;;23.76;77.67
7333;BME280;3707;43.618;25.342;2022-08-04T02:58:41;100172.47;;;23.49;78.85
7333;BME280;3707;43.618;25.342;2022-08-04T03:01:12;100196.34;;;23.72;77.54
7333;BME280;3707;43.618;25.342;2022-08-04T03:03:47;100198.59;;;23.83;78.71
7333;BME280;3707;43.618;25.342;2022-08-04T03:06:32;100201.47;;;24.00;76.12
7333;BME280;3707;43.618;25.342;2022-08-04T03:09:35;100196.66;;;24.09;73.68
7333;BME280;3707;43.618;25.342;2022-08-04T03:21:58;100179.66;;;24.16;73.77
7333;BME280;3707;43.618;25.342;2022-08-04T03:25:21;100200.00;;;24.38;73.94
7333;BME280;3707;43.618;25.342;2022-08-04T03:28:11;100188.00;;;24.29;75.03
7333;BME280;3707;43.618;25.342;2022-08-04T03:30:58;100194.56;;;24.41;75.30
7333;BME280;3707;43.618;25.342;2022-08-04T03:33:45;100172.72;;;24.36;75.88
7333;BME280;3707;43.618;25.342;2022-08-04T03:36:41;100174.78;;;24.49;76.71
7333;BME280;3707;43.618;25.342;2022-08-04T03:39:35;100174.50;;;24.57;75.28
7333;BME280;3707;43.618;25.342;2022-08-04T03:42:26;100186.31;;;24.70;75.44
7333;BME280;3707;43.618;25.342;2022-08-04T03:48:33;100202.38;;;25.09;73.50
7333;BME280;3707;43.618;25.342;2022-08-04T03:51:17;100198.25;;;25.22;74.25
7333;BME280;3707;43.618;25.342;2022-08-04T03:57:46;100210.50;;;26.43;67.32
7333;BME280;3707;43.618;25.342;2022-08-04T04:00:18;100138.84;;;26.40;63.98
7333;BME280;3707;43.618;25.342;2022-08-04T04:03:05;100201.88;;;27.27;62.08
7333;BME280;3707;43.618;25.342;2022-08-04T04:06:23;100213.25;;;27.65;59.94
7333;BME280;3707;43.618;25.342;2022-08-04T04:09:36;100208.53;;;28.34;57.40
7333;BME280;3707;43.618;25.342;2022-08-04T04:12:24;100225.66;;;28.30;57.06
7333;BME280;3707;43.618;25.342;2022-08-04T04:15:07;100227.47;;;28.14;56.87
7333;BME280;3707;43.618;25.342;2022-08-04T04:18:01;100225.00;;;28.42;56.71
7333;BME280;3707;43.618;25.342;2022-08-04T04:21:01;100223.53;;;28.52;55.53
7333;BME280;3707;43.618;25.342;2022-08-04T04:23:56;100210.38;;;28.49;55.00
7333;BME280;3707;43.618;25.342;2022-08-04T04:26:37;100232.03;;;28.58;55.30
7333;BME280;3707;43.618;25.342;2022-08-04T04:29:19;100230.41;;;28.25;56.02
7333;BME280;3707;43.618;25.342;2022-08-04T04:32:02;100234.88;;;28.24;55.98
7333;BME280;3707;43.618;25.342;2022-08-04T04:34:38;100231.41;;;28.22;57.43
7333;BME280;3707;43.618;25.342;2022-08-04T04:37:18;100235.28;;;29.11;54.06
7333;BME280;3707;43.618;25.342;2022-08-04T04:39:58;100206.00;;;29.39;53.28
7333;BME280;3707;43.618;25.342;2022-08-04T04:43:06;100241.72;;;29.80;52.09
7333;BME280;3707;43.618;25.342;2022-08-04T04:45:39;100249.25;;;29.89;52.41
7333;BME280;3707;43.618;25.342;2022-08-04T04:48:15;100242.00;;;29.76;52.99
7333;BME280;3707;43.618;25.342;2022-08-04T04:50:57;100242.34;;;30.42;51.54
7333;BME280;3707;43.618;25.342;2022-08-04T04:53:32;100245.69;;;30.45;52.14
7333;BME280;3707;43.618;25.342;2022-08-04T04:56:05;100235.69;;;30.62;52.44
7333;BME280;3707;43.618;25.342;2022-08-04T04:58:35;100243.59;;;30.77;51.72
7333;BME280;3707;43.618;25.342;2022-08-04T05:01:19;100249.59;;;30.12;53.63
7333;BME280;3707;43.618;25.342;2022-08-04T05:04:10;100257.75;;;30.65;52.83
7333;BME280;3707;43.618;25.342;2022-08-04T05:06:52;100237.75;;;30.01;54.67
7333;BME280;3707;43.618;25.342;2022-08-04T05:09:34;100254.47;;;30.19;53.86
7333;BME280;3707;43.618;25.342;2022-08-04T05:12:24;100248.66;;;29.84;55.97
7333;BME280;3707;43.618;25.342;2022-08-04T05:14:59;100243.88;;;30.32;54.33
7333;BME280;3707;43.618;25.342;2022-08-04T05:17:32;100255.69;;;30.83;53.39
7333;BME280;3707;43.618;25.342;2022-08-04T05:20:05;100259.16;;;31.12;52.10
7333;BME280;3707;43.618;25.342;2022-08-04T05:22:36;100262.03;;;30.13;53.70
7333;BME280;3707;43.618;25.342;2022-08-04T05:25:07;100248.81;;;29.81;55.43
7333;BME280;3707;43.618;25.342;2022-08-04T05:27:41;100196.00;;;28.67;58.07
7333;BME280;3707;43.618;25.342;2022-08-04T05:30:11;100253.13;;;28.94;57.79
7333;BME280;3707;43.618;25.342;2022-08-04T05:32:49;100255.00;;;28.61;59.25
7333;BME280;3707;43.618;25.342;2022-08-04T05:35:28;100241.25;;;28.22;60.47
7333;BME280;3707;43.618;25.342;2022-08-04T05:37:56;100251.00;;;28.05;61.40
7333;BME280;3707;43.618;25.342;2022-08-04T05:40:25;100265.09;;;28.25;61.45
7333;BME280;3707;43.618;25.342;2022-08-04T05:42:53;100239.78;;;28.47;61.33
7333;BME280;3707;43.618;25.342;2022-08-04T05:45:21;100249.84;;;28.27;61.97
7333;BME280;3707;43.618;25.342;2022-08-04T05:47:50;100252.78;;;28.38;60.40
7333;BME280;3707;43.618;25.342;2022-08-04T05:50:18;100245.13;;;28.94;60.31
7333;BME280;3707;43.618;25.342;2022-08-04T05:52:48;100235.97;;;28.98;57.95
7333;BME280;3707;43.618;25.342;2022-08-04T05:55:16;100253.91;;;29.42;56.57
7333;BME280;3707;43.618;25.342;2022-08-04T05:57:44;100247.66;;;29.12;56.77
7333;BME280;3707;43.618;25.342;2022-08-04T06:00:13;100242.81;;;28.73;57.41
7333;BME280;3707;43.618;25.342;2022-08-04T06:02:43;100262.72;;;28.19;59.75
7333;BME280;3707;43.618;25.342;2022-08-04T06:05:11;100270.16;;;27.96;62.48
7333;BME280;3707;43.618;25.342;2022-08-04T06:07:39;100221.03;;;28.00;62.93
7333;BME280;3707;43.618;25.342;2022-08-04T06:10:08;100270.94;;;27.98;62.58
7333;BME280;3707;43.618;25.342;2022-08-04T06:12:37;100217.94;;;27.42;62.86
7333;BME280;3707;43.618;25.342;2022-08-04T06:15:08;100223.50;;;27.55;64.09
7333;BME280;3707;43.618;25.342;2022-08-04T06:17:41;100261.63;;;27.73;64.76
7333;BME280;3707;43.618;25.342;2022-08-04T06:20:13;100246.28;;;27.78;64.03
7333;BME280;3707;43.618;25.342;2022-08-04T06:22:42;100252.00;;;27.70;66.21
7333;BME280;3707;43.618;25.342;2022-08-04T06:25:15;100252.41;;;27.63;66.49
7333;BME280;3707;43.618;25.342;2022-08-04T06:27:45;100260.97;;;27.52;66.68
7333;BME280;3707;43.618;25.342;2022-08-04T06:30:14;100238.25;;;27.45;67.32
7333;BME280;3707;43.618;25.342;2022-08-04T06:32:44;100247.44;;;27.72;67.82
7333;BME280;3707;43.618;25.342;2022-08-04T06:35:21;100208.22;;;27.24;66.22
7333;BME280;3707;43.618;25.342;2022-08-04T06:37:49;100249.75;;;27.45;66.83
7333;BME280;3707;43.618;25.342;2022-08-04T06:40:19;100267.50;;;27.79;65.89
7333;BME280;3707;43.618;25.342;2022-08-04T06:42:47;100247.44;;;27.72;65.51
7333;BME280;3707;43.618;25.342;2022-08-04T06:45:15;100264.16;;;27.58;66.80
7333;BME280;3707;43.618;25.342;2022-08-04T06:47:43;100270.78;;;27.84;65.76
7333;BME280;3707;43.618;25.342;2022-08-04T06:50:12;100273.06;;;27.92;65.48
7333;BME280;3707;43.618;25.342;2022-08-04T06:52:39;100280.53;;;27.85;65.35
7333;BME280;3707;43.618;25.342;2022-08-04T06:55:07;100250.75;;;27.77;65.77
7333;BME280;3707;43.618;25.342;2022-08-04T06:57:35;100276.88;;;28.21;66.14
7333;BME280;3707;43.618;25.342;2022-08-04T07:00:06;100275.50;;;28.45;65.15
7333;BME280;3707;43.618;25.342;2022-08-04T07:02:39;100246.91;;;28.47;63.03
7333;BME280;3707;43.618;25.342;2022-08-04T07:05:07;100275.16;;;28.51;62.72
7333;BME280;3707;43.618;25.342;2022-08-04T07:07:34;100274.84;;;28.73;61.79
7333;BME280;3707;43.618;25.342;2022-08-04T07:10:02;100280.28;;;28.71;62.36
7333;BME280;3707;43.618;25.342;2022-08-04T07:12:30;100236.31;;;28.61;60.51
7333;BME280;3707;43.618;25.342;2022-08-04T07:14:59;100269.19;;;28.79;60.30
7333;BME280;3707;43.618;25.342;2022-08-04T07:17:27;100261.81;;;28.98;60.60
7333;BME280;3707;43.618;25.342;2022-08-04T07:19:54;100263.44;;;29.00;59.67
7333;BME280;3707;43.618;25.342;2022-08-04T07:22:23;100256.41;;;28.68;58.48
7333;BME280;3707;43.618;25.342;2022-08-04T07:24:53;100263.50;;;28.85;59.26
7333;BME280;3707;43.618;25.342;2022-08-04T07:27:21;100262.25;;;28.90;57.48
7333;BME280;3707;43.618;25.342;2022-08-04T07:29:48;100260.56;;;28.89;56.61
7333;BME280;3707;43.618;25.342;2022-08-04T07:32:18;100209.38;;;28.66;57.47
7333;BME280;3707;43.618;25.342;2022-08-04T07:34:46;100247.97;;;28.91;57.20
7333;BME280;3707;43.618;25.342;2022-08-04T07:37:13;100070.03;;;27.99;57.08
7333;BME280;3707;43.618;25.342;2022-08-04T07:39:41;100246.59;;;28.84;56.32
7333;BME280;3707;43.618;25.342;2022-08-04T07:42:08;100246.53;;;28.70;57.06
7333;BME280;3707;43.618;25.342;2022-08-04T07:44:36;100208.03;;;28.74;57.02
7333;BME280;3707;43.618;25.342;2022-08-04T07:47:05;100246.31;;;29.04;57.30
7333;BME280;3707;43.618;25.342;2022-08-04T07:49:34;100248.63;;;29.11;56.66
7333;BME280;3707;43.618;25.342;2022-08-04T07:52:02;100242.31;;;29.12;56.00
7333;BME280;3707;43.618;25.342;2022-08-04T07:54:29;100246.41;;;29.33;56.16
7333;BME280;3707;43.618;25.342;2022-08-04T07:56:56;100246.41;;;29.63;54.14
7333;BME280;3707;43.618;25.342;2022-08-04T07:59:23;100256.22;;;29.62;54.17
7333;BME280;3707;43.618;25.342;2022-08-04T08:01:52;100247.53;;;29.29;56.36
7333;BME280;3707;43.618;25.342;2022-08-04T08:04:19;100253.56;;;29.62;54.72
7333;BME280;3707;43.618;25.342;2022-08-04T08:06:47;100253.94;;;29.70;54.47
7333;BME280;3707;43.618;25.342;2022-08-04T08:09:16;100265.50;;;29.27;53.48
7333;BME280;3707;43.618;25.342;2022-08-04T08:11:44;100256.38;;;29.45;54.53
7333;BME280;3707;43.618;25.342;2022-08-04T08:14:12;100260.72;;;29.62;55.23
7333;BME280;3707;43.618;25.342;2022-08-04T08:16:39;100259.31;;;29.70;53.60
7333;BME280;3707;43.618;25.342;2022-08-04T08:19:06;100254.31;;;29.50;53.25
7333;BME280;3707;43.618;25.342;2022-08-04T08:21:33;100244.66;;;29.62;54.23
7333;BME280;3707;43.618;25.342;2022-08-04T08:24:03;100249.16;;;29.75;52.89
7333;BME280;3707;43.618;25.342;2022-08-04T08:26:30;100257.44;;;30.00;51.15
7333;BME280;3707;43.618;25.342;2022-08-04T08:28:57;100254.75;;;29.86;51.50
7333;BME280;3707;43.618;25.342;2022-08-04T08:31:24;100258.06;;;29.76;49.19
7333;BME280;3707;43.618;25.342;2022-08-04T08:33:52;100258.59;;;30.11;49.37
7333;BME280;3707;43.618;25.342;2022-08-04T08:36:24;100233.63;;;29.68;49.68
7333;BME280;3707;43.618;25.342;2022-08-04T08:39:02;100242.34;;;29.85;49.98
7333;BME280;3707;43.618;25.342;2022-08-04T08:45:07;100263.44;;;30.32;48.26
7333;BME280;3707;43.618;25.342;2022-08-04T08:47:48;100259.72;;;30.21;48.01
7333;BME280;3707;43.618;25.342;2022-08-04T08:50:36;100265.63;;;30.26;45.58
7333;BME280;3707;43.618;25.342;2022-08-04T08:53:29;100263.81;;;30.26;47.08
7333;BME280;3707;43.618;25.342;2022-08-04T08:56:17;100251.53;;;30.10;47.47
7333;BME280;3707;43.618;25.342;2022-08-04T08:58:59;100254.66;;;30.16;47.39
7333;BME280;3707;43.618;25.342;2022-08-04T09:02:01;100260.59;;;30.49;45.77
7333;BME280;3707;43.618;25.342;2022-08-04T09:04:41;100261.63;;;30.19;46.69
7333;BME280;3707;43.618;25.342;2022-08-04T09:10:16;100262.13;;;30.54;44.57
7333;BME280;3707;43.618;25.342;2022-08-04T09:12:49;100258.19;;;30.45;44.01
7333;BME280;3707;43.618;25.342;2022-08-04T09:15:26;100256.16;;;30.63;44.03
7333;BME280;3707;43.618;25.342;2022-08-04T09:18:02;100250.47;;;30.81;43.89
7333;BME280;3707;43.618;25.342;2022-08-04T09:20:36;100248.63;;;30.55;43.21
7333;BME280;3707;43.618;25.342;2022-08-04T09:23:19;100249.88;;;30.35;42.52
7333;BME280;3707;43.618;25.342;2022-08-04T09:25:55;100234.66;;;30.64;43.40
7333;BME280;3707;43.618;25.342;2022-08-04T09:28:24;100245.47;;;30.75;44.32
7333;BME280;3707;43.618;25.342;2022-08-04T09:30:56;100245.97;;;30.82;43.39
7333;BME280;3707;43.618;25.342;2022-08-04T09:33:33;100246.34;;;30.76;42.79
7333;BME280;3707;43.618;25.342;2022-08-04T09:36:13;100238.34;;;31.03;42.63
7333;BME280;3707;43.618;25.342;2022-08-04T09:38:45;100236.41;;;31.05;42.63
7333;BME280;3707;43.618;25.342;2022-08-04T09:41:23;100236.97;;;31.10;41.91
7333;BME280;3707;43.618;25.342;2022-08-04T09:44:01;100237.06;;;31.08;41.96
7333;BME280;3707;43.618;25.342;2022-08-04T09:46:38;100235.16;;;31.10;42.72
7333;BME280;3707;43.618;25.342;2022-08-04T09:49:13;100243.63;;;31.17;42.20
7333;BME280;3707;43.618;25.342;2022-08-04T09:51:57;100235.94;;;31.25;41.17
7333;BME280;3707;43.618;25.342;2022-08-04T09:54:32;100231.63;;;31.10;41.60
7333;BME280;3707;43.618;25.342;2022-08-04T09:57:07;100235.38;;;31.20;41.89
7333;BME280;3707;43.618;25.342;2022-08-04T09:59:42;100205.81;;;31.34;42.44
7333;BME280;3707;43.618;25.342;2022-08-04T10:02:13;100220.31;;;31.31;41.93
7333;BME280;3707;43.618;25.342;2022-08-04T10:04:43;100193.50;;;31.31;40.73
7333;BME280;3707;43.618;25.342;2022-08-04T10:07:46;100226.16;;;31.63;41.97
7333;BME280;3707;43.618;25.342;2022-08-04T10:10:27;100220.84;;;31.49;41.19
7333;BME280;3707;43.618;25.342;2022-08-04T10:13:24;100215.97;;;31.56;42.16
7333;BME280;3707;43.618;25.342;2022-08-04T10:16:04;100217.34;;;31.61;41.14
7333;BME280;3707;43.618;25.342;2022-08-04T10:18:47;100204.94;;;31.60;40.97
7333;BME280;3707;43.618;25.342;2022-08-04T10:21:25;100187.38;;;31.29;41.18
7333;BME280;3707;43.618;25.342;2022-08-04T10:24:18;100217.88;;;31.66;41.15
7333;BME280;3707;43.618;25.342;2022-08-04T10:26:59;100211.88;;;31.63;40.56
7333;BME280;3707;43.618;25.342;2022-08-04T10:29:29;100202.00;;;31.76;40.68
7333;BME280;3707;43.618;25.342;2022-08-04T10:32:03;100219.63;;;31.67;40.50
7333;BME280;3707;43.618;25.342;2022-08-04T10:34:36;100188.94;;;31.71;40.97
7333;BME280;3707;43.618;25.342;2022-08-04T10:37:18;100212.06;;;31.98;40.61
7333;BME280;3707;43.618;25.342;2022-08-04T10:39:51;100210.03;;;32.01;39.25
7333;BME280;3707;43.618;25.342;2022-08-04T10:42:36;100213.28;;;31.81;40.28
7333;BME280;3707;43.618;25.342;2022-08-04T10:45:13;100187.72;;;31.75;40.10
7333;BME280;3707;43.618;25.342;2022-08-04T10:47:48;100212.84;;;32.00;39.02
7333;BME280;3707;43.618;25.342;2022-08-04T10:50:18;100197.25;;;32.05;40.01
7333;BME280;3707;43.618;25.342;2022-08-04T10:53:02;100195.78;;;31.88;39.03
7333;BME280;3707;43.618;25.342;2022-08-04T10:55:35;100195.47;;;31.80;39.83
7333;BME280;3707;43.618;25.342;2022-08-04T10:58:05;100205.19;;;32.19;40.25
7333;BME280;3707;43.618;25.342;2022-08-04T11:00:35;100197.81;;;32.10;39.38
7333;BME280;3707;43.618;25.342;2022-08-04T11:03:06;100181.59;;;31.99;40.25
7333;BME280;3707;43.618;25.342;2022-08-04T11:05:38;100200.25;;;32.00;39.52
7333;BME280;3707;43.618;25.342;2022-08-04T11:08:11;100190.88;;;32.31;40.08
7333;BME280;3707;43.618;25.342;2022-08-04T11:10:46;100187.97;;;32.58;39.35
7333;BME280;3707;43.618;25.342;2022-08-04T11:13:15;100190.28;;;32.51;39.58
7333;BME280;3707;43.618;25.342;2022-08-04T11:15:47;100166.03;;;32.40;39.00
7333;BME280;3707;43.618;25.342;2022-08-04T11:18:22;100194.16;;;32.11;39.12
7333;BME280;3707;43.618;25.342;2022-08-04T11:20:55;100186.81;;;32.62;39.44
7333;BME280;3707;43.618;25.342;2022-08-04T11:23:32;100189.13;;;32.42;39.55
7333;BME280;3707;43.618;25.342;2022-08-04T11:26:05;100195.00;;;32.24;38.53
7333;BME280;3707;43.618;25.342;2022-08-04T11:28:45;100073.50;;;31.73;37.11
7333;BME280;3707;43.618;25.342;2022-08-04T11:31:21;100178.19;;;32.33;37.61
7333;BME280;3707;43.618;25.342;2022-08-04T11:33:53;100147.16;;;32.41;37.23
7333;BME280;3707;43.618;25.342;2022-08-04T11:36:29;100147.50;;;32.84;36.77
7333;BME280;3707;43.618;25.342;2022-08-04T11:39:06;100133.81;;;32.87;36.84
7333;BME280;3707;43.618;25.342;2022-08-04T11:41:47;100170.63;;;33.44;36.46
7333;BME280;3707;43.618;25.342;2022-08-04T11:44:23;100162.06;;;33.28;36.41
7333;BME280;3707;43.618;25.342;2022-08-04T11:46:56;100165.81;;;33.14;36.73
7333;BME280;3707;43.618;25.342;2022-08-04T11:49:28;100147.16;;;32.89;37.40
7333;BME280;3707;43.618;25.342;2022-08-04T11:51:59;100162.22;;;33.03;36.88
7333;BME280;3707;43.618;25.342;2022-08-04T11:54:30;100160.22;;;33.17;36.72
7333;BME280;3707;43.618;25.342;2022-08-04T11:56:57;100160.06;;;33.19;36.47
7333;BME280;3707;43.618;25.342;2022-08-04T11:59:26;100165.00;;;33.36;35.69
7333;BME280;3707;43.618;25.342;2022-08-04T12:02:22;100156.31;;;33.32;36.15
7333;BME280;3707;43.618;25.342;2022-08-04T12:04:57;100146.03;;;33.26;35.93
7333;BME280;3707;43.618;25.342;2022-08-04T12:07:43;100119.81;;;33.52;35.61
7333;BME280;3707;43.618;25.342;2022-08-04T12:10:23;100149.78;;;33.92;34.43
7333;BME280;3707;43.618;25.342;2022-08-04T12:13:00;100134.00;;;33.76;34.95
7333;BME280;3707;43.618;25.342;2022-08-04T12:15:31;100128.97;;;34.27;35.47
7333;BME280;3707;43.618;25.342;2022-08-04T12:18:07;100124.50;;;34.38;34.16
7333;BME280;3707;43.618;25.342;2022-08-04T12:20:41;100138.00;;;34.26;35.35
7333;BME280;3707;43.618;25.342;2022-08-04T12:23:14;100131.56;;;33.84;35.68
7333;BME280;3707;43.618;25.342;2022-08-04T12:25:47;100120.75;;;34.18;35.65
7333;BME280;3707;43.618;25.342;2022-08-04T12:28:21;100104.38;;;34.10;35.21
7333;BME280;3707;43.618;25.342;2022-08-04T12:30:53;100121.50;;;33.31;36.08
7333;BME280;3707;43.618;25.342;2022-08-04T12:33:25;100121.03;;;33.59;35.18
7333;BME280;3707;43.618;25.342;2022-08-04T12:35:58;100124.72;;;33.80;36.44
7333;BME280;3707;43.618;25.342;2022-08-04T12:38:30;100130.34;;;34.00;34.83
7333;BME280;3707;43.618;25.342;2022-08-04T12:41:00;100109.00;;;34.30;34.26
7333;BME280;3707;43.618;25.342;2022-08-04T12:43:35;100113.19;;;34.55;33.92
7333;BME280;3707;43.618;25.342;2022-08-04T12:46:05;100083.81;;;34.20;33.11
7333;BME280;3707;43.618;25.342;2022-08-04T12:48:36;100100.66;;;34.33;32.91
7333;BME280;3707;43.618;25.342;2022-08-04T12:51:07;100110.13;;;34.16;33.27
7333;BME280;3707;43.618;25.342;2022-08-04T12:53:36;100095.59;;;33.85;33.09
7333;BME280;3707;43.618;25.342;2022-08-04T12:56:07;100101.22;;;33.82;33.75
7333;BME280;3707;43.618;25.342;2022-08-04T12:58:37;100092.06;;;33.74;33.64
7333;BME280;3707;43.618;25.342;2022-08-04T13:01:07;100095.34;;;34.00;33.53
7333;BME280;3707;43.618;25.342;2022-08-04T13:03:38;100099.69;;;34.34;34.05
7333;BME280;3707;43.618;25.342;2022-08-04T13:06:09;100094.81;;;34.60;31.82
7333;BME280;3707;43.618;25.342;2022-08-04T13:08:38;100100.78;;;34.74;32.62
7333;BME280;3707;43.618;25.342;2022-08-04T13:11:09;100100.13;;;35.03;32.19
7333;BME280;3707;43.618;25.342;2022-08-04T13:13:38;100071.69;;;34.46;32.79
7333;BME280;3707;43.618;25.342;2022-08-04T13:16:07;100102.03;;;34.27;33.30
7333;BME280;3707;43.618;25.342;2022-08-04T13:18:36;100098.00;;;34.22;32.87
7333;BME280;3707;43.618;25.342;2022-08-04T13:21:13;100093.19;;;34.25;32.37
7333;BME280;3707;43.618;25.342;2022-08-04T13:23:41;100097.38;;;34.07;32.26
7333;BME280;3707;43.618;25.342;2022-08-04T13:26:12;100094.84;;;34.17;32.01
7333;BME280;3707;43.618;25.342;2022-08-04T13:28:41;100079.13;;;34.11;32.17
7333;BME280;3707;43.618;25.342;2022-08-04T13:31:13;100080.34;;;34.29;34.76
7333;BME280;3707;43.618;25.342;2022-08-04T13:33:42;100075.25;;;34.15;35.27
7333;BME280;3707;43.618;25.342;2022-08-04T13:36:10;100063.97;;;33.67;35.70
7333;BME280;3707;43.618;25.342;2022-08-04T13:38:44;100066.47;;;33.57;35.42
7333;BME280;3707;43.618;25.342;2022-08-04T13:41:16;100087.56;;;33.74;34.86
7333;BME280;3707;43.618;25.342;2022-08-04T13:43:48;100080.28;;;33.97;34.13
7333;BME280;3707;43.618;25.342;2022-08-04T13:46:19;100084.31;;;34.03;33.78
7333;BME280;3707;43.618;25.342;2022-08-04T13:48:47;100054.19;;;34.09;33.42
7333;BME280;3707;43.618;25.342;2022-08-04T13:51:17;100064.03;;;34.73;35.21
7333;BME280;3707;43.618;25.342;2022-08-04T13:53:54;100065.78;;;35.05;32.00
7333;BME280;3707;43.618;25.342;2022-08-04T13:56:23;100068.34;;;34.85;31.73
7333;BME280;3707;43.618;25.342;2022-08-04T13:58:59;100080.00;;;34.22;32.63
7333;BME280;3707;43.618;25.342;2022-08-04T14:01:27;100078.94;;;34.14;32.59
7333;BME280;3707;43.618;25.342;2022-08-04T14:03:58;100058.13;;;34.48;32.36
7333;BME280;3707;43.618;25.342;2022-08-04T14:06:29;100078.50;;;34.29;33.28
7333;BME280;3707;43.618;25.342;2022-08-04T14:09:00;100068.22;;;33.80;33.59